KSUW/SUW METAR and TAF weather

Enter ICAO airport designator
Station Type Date Time Source
KSUW METAR 2021/01/17 18:35 UTC NOAA

KSUW 171835Z AUTO 00000KT 10SM BKN018 OVC023 M03/M07 A2977 RMK AO2 T10311072


Station Type Date Time Source
KSUW Decoded METAR 2021/01/17 18:35 UTC NOAA

Superior, Richard I. Bong Airport, WI, United States (KSUW) 46-41-23N 092-05-41W
Jan 17, 2021 - 01:35 PM EST / 2021.01.17 1835 UTC
Wind: Calm:0
Visibility: 10 mile(s):0
Sky conditions: overcast
Temperature: 26.4 F (-3.1 C)
Dew Point: 19.0 F (-7.2 C)
Relative Humidity: 73%
Pressure (altimeter): 29.77 in. Hg (1008 hPa)
ob: KSUW 171835Z AUTO 00000KT 10SM BKN018 OVC023 M03/M07 A2977 RMK AO2 T10311072
cycle: 18

Station Type Date Time Source
KSUW TAF UTC NOAA

Error!

Example: see airport list